sensor_id;sensor_type;location;lat;lon;timestamp;P1;durP1;ratioP1;P2;durP2;ratioP2
10387;SDS011;5240;51.128;4.566;2023-05-23T00:00:03;39.22;;;25.50;;
10387;SDS011;5240;51.128;4.566;2023-05-23T00:02:31;41.72;;;25.65;;
10387;SDS011;5240;51.128;4.566;2023-05-23T00:05:00;36.67;;;24.65;;
10387;SDS011;5240;51.128;4.566;2023-05-23T00:07:27;39.50;;;23.95;;
10387;SDS011;5240;51.128;4.566;2023-05-23T00:09:56;33.85;;;23.38;;
10387;SDS011;5240;51.128;4.566;2023-05-23T00:12:23;35.03;;;23.00;;
10387;SDS011;5240;51.128;4.566;2023-05-23T00:14:51;38.35;;;23.90;;
10387;SDS011;5240;51.128;4.566;2023-05-23T00:17:18;35.35;;;23.20;;
10387;SDS011;5240;51.128;4.566;2023-05-23T00:19:49;37.92;;;22.48;;
10387;SDS011;5240;51.128;4.566;2023-05-23T00:22:18;31.23;;;21.77;;
10387;SDS011;5240;51.128;4.566;2023-05-23T00:24:45;32.67;;;22.45;;
10387;SDS011;5240;51.128;4.566;2023-05-23T00:27:12;32.92;;;21.95;;
10387;SDS011;5240;51.128;4.566;2023-05-23T00:29:39;34.28;;;22.27;;
10387;SDS011;5240;51.128;4.566;2023-05-23T00:32:06;32.20;;;20.00;;
10387;SDS011;5240;51.128;4.566;2023-05-23T00:34:33;29.73;;;17.83;;
10387;SDS011;5240;51.128;4.566;2023-05-23T00:37:02;26.55;;;16.85;;
10387;SDS011;5240;51.128;4.566;2023-05-23T00:39:31;25.00;;;16.52;;
10387;SDS011;5240;51.128;4.566;2023-05-23T00:41:58;23.33;;;15.75;;
10387;SDS011;5240;51.128;4.566;2023-05-23T00:44:30;26.10;;;15.60;;
10387;SDS011;5240;51.128;4.566;2023-05-23T00:46:57;25.15;;;16.52;;
10387;SDS011;5240;51.128;4.566;2023-05-23T00:49:25;20.35;;;15.65;;
10387;SDS011;5240;51.128;4.566;2023-05-23T00:51:53;22.80;;;16.02;;
10387;SDS011;5240;51.128;4.566;2023-05-23T00:54:23;22.10;;;16.55;;
10387;SDS011;5240;51.128;4.566;2023-05-23T00:56:53;23.85;;;15.48;;
10387;SDS011;5240;51.128;4.566;2023-05-23T00:59:21;23.00;;;16.23;;
10387;SDS011;5240;51.128;4.566;2023-05-23T01:01:49;23.90;;;17.95;;
10387;SDS011;5240;51.128;4.566;2023-05-23T01:04:17;23.08;;;18.33;;
10387;SDS011;5240;51.128;4.566;2023-05-23T01:06:45;24.13;;;18.88;;
10387;SDS011;5240;51.128;4.566;2023-05-23T01:09:13;25.95;;;20.10;;
10387;SDS011;5240;51.128;4.566;2023-05-23T01:11:42;26.98;;;20.83;;
10387;SDS011;5240;51.128;4.566;2023-05-23T01:14:17;27.30;;;20.52;;
10387;SDS011;5240;51.128;4.566;2023-05-23T01:16:50;28.60;;;21.40;;
10387;SDS011;5240;51.128;4.566;2023-05-23T01:19:28;27.02;;;20.35;;
10387;SDS011;5240;51.128;4.566;2023-05-23T01:22:30;22.58;;;19.27;;
10387;SDS011;5240;51.128;4.566;2023-05-23T01:25:06;22.35;;;18.42;;
10387;SDS011;5240;51.128;4.566;2023-05-23T01:27:50;25.10;;;20.13;;
10387;SDS011;5240;51.128;4.566;2023-05-23T01:30:20;23.38;;;18.50;;
10387;SDS011;5240;51.128;4.566;2023-05-23T01:32:50;23.48;;;18.55;;
10387;SDS011;5240;51.128;4.566;2023-05-23T01:35:22;20.45;;;16.27;;
10387;SDS011;5240;51.128;4.566;2023-05-23T01:37:51;18.55;;;15.30;;
10387;SDS011;5240;51.128;4.566;2023-05-23T01:40:19;16.63;;;14.90;;
10387;SDS011;5240;51.128;4.566;2023-05-23T01:42:46;17.85;;;14.80;;
10387;SDS011;5240;51.128;4.566;2023-05-23T01:45:15;16.77;;;14.45;;
10387;SDS011;5240;51.128;4.566;2023-05-23T01:47:43;18.08;;;14.35;;
10387;SDS011;5240;51.128;4.566;2023-05-23T01:50:12;17.17;;;14.43;;
10387;SDS011;5240;51.128;4.566;2023-05-23T01:52:40;15.73;;;14.00;;
10387;SDS011;5240;51.128;4.566;2023-05-23T01:55:07;18.15;;;14.80;;
10387;SDS011;5240;51.128;4.566;2023-05-23T01:57:36;17.98;;;14.73;;
10387;SDS011;5240;51.128;4.566;2023-05-23T02:00:04;17.88;;;15.02;;
10387;SDS011;5240;51.128;4.566;2023-05-23T02:02:36;18.80;;;14.63;;
10387;SDS011;5240;51.128;4.566;2023-05-23T02:05:03;20.88;;;15.65;;
10387;SDS011;5240;51.128;4.566;2023-05-23T02:07:31;17.63;;;14.32;;
10387;SDS011;5240;51.128;4.566;2023-05-23T02:09:58;20.15;;;14.80;;
10387;SDS011;5240;51.128;4.566;2023-05-23T02:12:26;20.65;;;14.15;;
10387;SDS011;5240;51.128;4.566;2023-05-23T02:14:53;18.30;;;14.43;;
10387;SDS011;5240;51.128;4.566;2023-05-23T02:17:21;20.70;;;15.57;;
10387;SDS011;5240;51.128;4.566;2023-05-23T02:19:49;22.50;;;16.60;;
10387;SDS011;5240;51.128;4.566;2023-05-23T02:22:16;19.77;;;15.70;;
10387;SDS011;5240;51.128;4.566;2023-05-23T02:24:48;21.65;;;16.15;;
10387;SDS011;5240;51.128;4.566;2023-05-23T02:27:15;22.95;;;17.10;;
10387;SDS011;5240;51.128;4.566;2023-05-23T02:29:42;25.63;;;17.98;;
10387;SDS011;5240;51.128;4.566;2023-05-23T02:32:09;23.30;;;18.23;;
10387;SDS011;5240;51.128;4.566;2023-05-23T02:34:36;28.60;;;19.42;;
10387;SDS011;5240;51.128;4.566;2023-05-23T02:37:05;26.55;;;20.33;;
10387;SDS011;5240;51.128;4.566;2023-05-23T02:39:33;27.30;;;20.23;;
10387;SDS011;5240;51.128;4.566;2023-05-23T02:42:01;28.48;;;20.88;;
10387;SDS011;5240;51.128;4.566;2023-05-23T02:44:28;25.65;;;19.58;;
10387;SDS011;5240;51.128;4.566;2023-05-23T02:46:55;32.90;;;20.58;;
10387;SDS011;5240;51.128;4.566;2023-05-23T02:49:23;26.45;;;20.02;;
10387;SDS011;5240;51.128;4.566;2023-05-23T02:51:50;30.65;;;21.42;;
10387;SDS011;5240;51.128;4.566;2023-05-23T02:54:19;29.58;;;20.95;;
10387;SDS011;5240;51.128;4.566;2023-05-23T02:56:46;31.00;;;22.05;;
10387;SDS011;5240;51.128;4.566;2023-05-23T02:59:14;33.85;;;22.10;;
10387;SDS011;5240;51.128;4.566;2023-05-23T03:01:42;32.20;;;23.55;;
10387;SDS011;5240;51.128;4.566;2023-05-23T03:04:09;30.50;;;21.83;;
10387;SDS011;5240;51.128;4.566;2023-05-23T03:06:37;36.53;;;22.02;;
10387;SDS011;5240;51.128;4.566;2023-05-23T03:09:06;34.22;;;21.88;;
10387;SDS011;5240;51.128;4.566;2023-05-23T03:11:35;32.97;;;22.58;;
10387;SDS011;5240;51.128;4.566;2023-05-23T03:14:02;26.85;;;19.25;;
10387;SDS011;5240;51.128;4.566;2023-05-23T03:16:29;27.88;;;18.25;;
10387;SDS011;5240;51.128;4.566;2023-05-23T03:18:57;22.02;;;14.27;;
10387;SDS011;5240;51.128;4.566;2023-05-23T03:21:24;24.85;;;13.70;;
10387;SDS011;5240;51.128;4.566;2023-05-23T03:23:52;20.00;;;13.23;;
10387;SDS011;5240;51.128;4.566;2023-05-23T03:26:19;17.00;;;11.38;;
10387;SDS011;5240;51.128;4.566;2023-05-23T03:28:48;15.13;;;11.18;;
10387;SDS011;5240;51.128;4.566;2023-05-23T03:31:16;17.27;;;10.93;;
10387;SDS011;5240;51.128;4.566;2023-05-23T03:33:43;14.63;;;10.73;;
10387;SDS011;5240;51.128;4.566;2023-05-23T03:36:10;16.10;;;11.60;;
10387;SDS011;5240;51.128;4.566;2023-05-23T03:38:37;16.33;;;11.77;;
10387;SDS011;5240;51.128;4.566;2023-05-23T03:41:05;13.75;;;10.40;;
10387;SDS011;5240;51.128;4.566;2023-05-23T03:43:32;15.43;;;10.32;;
10387;SDS011;5240;51.128;4.566;2023-05-23T03:46:00;15.88;;;10.43;;
10387;SDS011;5240;51.128;4.566;2023-05-23T03:48:28;16.05;;;10.73;;
10387;SDS011;5240;51.128;4.566;2023-05-23T03:50:55;12.48;;;10.10;;
10387;SDS011;5240;51.128;4.566;2023-05-23T03:53:22;13.20;;;10.02;;
10387;SDS011;5240;51.128;4.566;2023-05-23T03:55:50;15.57;;;9.88;;
10387;SDS011;5240;51.128;4.566;2023-05-23T03:58:18;13.05;;;9.68;;
10387;SDS011;5240;51.128;4.566;2023-05-23T04:00:45;13.27;;;9.68;;
10387;SDS011;5240;51.128;4.566;2023-05-23T04:03:14;15.05;;;9.43;;
10387;SDS011;5240;51.128;4.566;2023-05-23T04:05:42;14.45;;;9.45;;
10387;SDS011;5240;51.128;4.566;2023-05-23T04:08:09;14.60;;;9.50;;
10387;SDS011;5240;51.128;4.566;2023-05-23T04:10:37;13.00;;;8.88;;
10387;SDS011;5240;51.128;4.566;2023-05-23T04:13:04;11.32;;;8.43;;
10387;SDS011;5240;51.128;4.566;2023-05-23T04:15:31;11.00;;;8.50;;
10387;SDS011;5240;51.128;4.566;2023-05-23T04:17:59;15.13;;;9.05;;
10387;SDS011;5240;51.128;4.566;2023-05-23T04:20:29;11.77;;;7.95;;
10387;SDS011;5240;51.128;4.566;2023-05-23T04:22:56;9.93;;;8.05;;
10387;SDS011;5240;51.128;4.566;2023-05-23T04:25:23;13.20;;;8.75;;
10387;SDS011;5240;51.128;4.566;2023-05-23T04:27:50;13.00;;;8.20;;
10387;SDS011;5240;51.128;4.566;2023-05-23T04:30:19;11.75;;;8.07;;
10387;SDS011;5240;51.128;4.566;2023-05-23T04:32:47;12.35;;;7.70;;
10387;SDS011;5240;51.128;4.566;2023-05-23T04:35:14;14.60;;;8.68;;
10387;SDS011;5240;51.128;4.566;2023-05-23T04:37:43;10.70;;;8.02;;
10387;SDS011;5240;51.128;4.566;2023-05-23T04:40:11;13.85;;;9.23;;
10387;SDS011;5240;51.128;4.566;2023-05-23T04:42:38;16.20;;;10.57;;
10387;SDS011;5240;51.128;4.566;2023-05-23T04:45:08;14.48;;;11.55;;
10387;SDS011;5240;51.128;4.566;2023-05-23T04:47:36;17.08;;;12.90;;
10387;SDS011;5240;51.128;4.566;2023-05-23T04:50:04;19.58;;;13.63;;
10387;SDS011;5240;51.128;4.566;2023-05-23T04:52:31;28.20;;;14.05;;
10387;SDS011;5240;51.128;4.566;2023-05-23T04:55:00;20.65;;;13.38;;
10387;SDS011;5240;51.128;4.566;2023-05-23T04:57:27;24.90;;;14.15;;
10387;SDS011;5240;51.128;4.566;2023-05-23T04:59:54;25.95;;;13.20;;
10387;SDS011;5240;51.128;4.566;2023-05-23T05:02:22;24.30;;;13.93;;
10387;SDS011;5240;51.128;4.566;2023-05-23T05:04:51;24.67;;;13.00;;
10387;SDS011;5240;51.128;4.566;2023-05-23T05:07:18;20.70;;;12.80;;
10387;SDS011;5240;51.128;4.566;2023-05-23T05:09:45;22.67;;;12.90;;
10387;SDS011;5240;51.128;4.566;2023-05-23T05:12:14;21.80;;;12.63;;
10387;SDS011;5240;51.128;4.566;2023-05-23T05:14:41;24.58;;;13.38;;
10387;SDS011;5240;51.128;4.566;2023-05-23T05:17:09;28.42;;;13.75;;
10387;SDS011;5240;51.128;4.566;2023-05-23T05:19:36;23.33;;;13.75;;
10387;SDS011;5240;51.128;4.566;2023-05-23T05:22:04;28.15;;;14.70;;
10387;SDS011;5240;51.128;4.566;2023-05-23T05:24:32;30.30;;;14.45;;
10387;SDS011;5240;51.128;4.566;2023-05-23T05:26:59;30.88;;;15.43;;
10387;SDS011;5240;51.128;4.566;2023-05-23T05:29:27;29.25;;;13.95;;
10387;SDS011;5240;51.128;4.566;2023-05-23T05:31:55;26.80;;;14.57;;
10387;SDS011;5240;51.128;4.566;2023-05-23T05:34:22;28.90;;;14.60;;
10387;SDS011;5240;51.128;4.566;2023-05-23T05:36:49;26.13;;;13.32;;
10387;SDS011;5240;51.128;4.566;2023-05-23T05:39:21;30.90;;;13.82;;
10387;SDS011;5240;51.128;4.566;2023-05-23T05:41:49;33.25;;;13.95;;
10387;SDS011;5240;51.128;4.566;2023-05-23T05:44:16;26.85;;;12.93;;
10387;SDS011;5240;51.128;4.566;2023-05-23T05:46:45;27.80;;;12.82;;
10387;SDS011;5240;51.128;4.566;2023-05-23T05:49:12;31.92;;;13.15;;
10387;SDS011;5240;51.128;4.566;2023-05-23T05:51:39;25.40;;;12.65;;
10387;SDS011;5240;51.128;4.566;2023-05-23T05:54:06;25.65;;;11.70;;
10387;SDS011;5240;51.128;4.566;2023-05-23T05:56:34;24.23;;;11.70;;
10387;SDS011;5240;51.128;4.566;2023-05-23T05:59:02;29.60;;;12.07;;
10387;SDS011;5240;51.128;4.566;2023-05-23T06:01:29;25.45;;;11.27;;
10387;SDS011;5240;51.128;4.566;2023-05-23T06:03:58;22.23;;;10.82;;
10387;SDS011;5240;51.128;4.566;2023-05-23T06:06:25;23.90;;;10.07;;
10387;SDS011;5240;51.128;4.566;2023-05-23T06:08:52;23.50;;;9.95;;
10387;SDS011;5240;51.128;4.566;2023-05-23T06:11:20;17.75;;;8.95;;
10387;SDS011;5240;51.128;4.566;2023-05-23T06:13:47;18.20;;;9.15;;
10387;SDS011;5240;51.128;4.566;2023-05-23T06:16:14;19.33;;;8.35;;
10387;SDS011;5240;51.128;4.566;2023-05-23T06:18:42;21.90;;;8.52;;
10387;SDS011;5240;51.128;4.566;2023-05-23T06:21:10;18.95;;;8.23;;
10387;SDS011;5240;51.128;4.566;2023-05-23T06:23:38;14.45;;;7.72;;
10387;SDS011;5240;51.128;4.566;2023-05-23T06:26:13;14.02;;;7.45;;
10387;SDS011;5240;51.128;4.566;2023-05-23T06:28:59;15.60;;;7.00;;
10387;SDS011;5240;51.128;4.566;2023-05-23T06:31:40;13.70;;;5.80;;
10387;SDS011;5240;51.128;4.566;2023-05-23T06:39:47;13.43;;;5.75;;
10387;SDS011;5240;51.128;4.566;2023-05-23T06:42:14;9.40;;;5.60;;
10387;SDS011;5240;51.128;4.566;2023-05-23T06:44:41;7.20;;;4.63;;
10387;SDS011;5240;51.128;4.566;2023-05-23T06:52:19;12.65;;;5.43;;
10387;SDS011;5240;51.128;4.566;2023-05-23T06:54:47;9.93;;;5.15;;
10387;SDS011;5240;51.128;4.566;2023-05-23T06:57:14;15.70;;;5.57;;
10387;SDS011;5240;51.128;4.566;2023-05-23T06:59:41;11.57;;;5.03;;
10387;SDS011;5240;51.128;4.566;2023-05-23T07:02:08;13.27;;;5.20;;
10387;SDS011;5240;51.128;4.566;2023-05-23T07:04:36;15.68;;;5.47;;
10387;SDS011;5240;51.128;4.566;2023-05-23T07:07:03;10.77;;;5.22;;
10387;SDS011;5240;51.128;4.566;2023-05-23T07:09:47;12.73;;;5.75;;
10387;SDS011;5240;51.128;4.566;2023-05-23T07:12:14;13.00;;;5.60;;
10387;SDS011;5240;51.128;4.566;2023-05-23T07:14:41;13.15;;;5.55;;
10387;SDS011;5240;51.128;4.566;2023-05-23T07:17:10;11.70;;;5.18;;
10387;SDS011;5240;51.128;4.566;2023-05-23T07:19:37;17.52;;;5.20;;
10387;SDS011;5240;51.128;4.566;2023-05-23T07:22:04;13.98;;;6.60;;
10387;SDS011;5240;51.128;4.566;2023-05-23T07:24:31;15.85;;;6.50;;
10387;SDS011;5240;51.128;4.566;2023-05-23T07:32:25;10.77;;;6.18;;
10387;SDS011;5240;51.128;4.566;2023-05-23T07:34:52;13.90;;;6.30;;
10387;SDS011;5240;51.128;4.566;2023-05-23T07:37:30;17.73;;;6.28;;
10387;SDS011;5240;51.128;4.566;2023-05-23T07:39:57;11.50;;;6.18;;
10387;SDS011;5240;51.128;4.566;2023-05-23T07:42:24;11.15;;;6.13;;
10387;SDS011;5240;51.128;4.566;2023-05-23T07:44:52;15.70;;;7.38;;
10387;SDS011;5240;51.128;4.566;2023-05-23T07:47:20;14.40;;;6.30;;
10387;SDS011;5240;51.128;4.566;2023-05-23T07:49:50;12.77;;;6.55;;
10387;SDS011;5240;51.128;4.566;2023-05-23T07:52:21;15.52;;;6.90;;
10387;SDS011;5240;51.128;4.566;2023-05-23T07:54:48;16.33;;;6.80;;
10387;SDS011;5240;51.128;4.566;2023-05-23T07:57:15;15.52;;;6.90;;
10387;SDS011;5240;51.128;4.566;2023-05-23T07:59:42;16.88;;;7.13;;
10387;SDS011;5240;51.128;4.566;2023-05-23T08:02:09;19.65;;;7.13;;
10387;SDS011;5240;51.128;4.566;2023-05-23T08:04:38;17.63;;;6.97;;
10387;SDS011;5240;51.128;4.566;2023-05-23T08:07:05;12.23;;;6.32;;
10387;SDS011;5240;51.128;4.566;2023-05-23T08:09:33;16.00;;;6.90;;
10387;SDS011;5240;51.128;4.566;2023-05-23T08:12:00;16.35;;;6.47;;
10387;SDS011;5240;51.128;4.566;2023-05-23T08:14:33;14.30;;;6.50;;
10387;SDS011;5240;51.128;4.566;2023-05-23T08:17:03;11.68;;;6.18;;
10387;SDS011;5240;51.128;4.566;2023-05-23T08:19:30;12.85;;;5.70;;
10387;SDS011;5240;51.128;4.566;2023-05-23T08:21:59;11.27;;;5.47;;
10387;SDS011;5240;51.128;4.566;2023-05-23T08:24:31;11.93;;;5.72;;
10387;SDS011;5240;51.128;4.566;2023-05-23T08:26:59;12.52;;;5.05;;
10387;SDS011;5240;51.128;4.566;2023-05-23T08:29:29;12.38;;;5.43;;
10387;SDS011;5240;51.128;4.566;2023-05-23T08:31:56;13.55;;;6.03;;
10387;SDS011;5240;51.128;4.566;2023-05-23T08:34:23;13.77;;;5.75;;
10387;SDS011;5240;51.128;4.566;2023-05-23T08:36:50;8.90;;;5.28;;
10387;SDS011;5240;51.128;4.566;2023-05-23T08:39:19;8.15;;;5.20;;
10387;SDS011;5240;51.128;4.566;2023-05-23T08:41:46;14.70;;;5.30;;
10387;SDS011;5240;51.128;4.566;2023-05-23T08:44:13;10.05;;;5.55;;
10387;SDS011;5240;51.128;4.566;2023-05-23T08:46:46;16.38;;;5.65;;
10387;SDS011;5240;51.128;4.566;2023-05-23T08:49:14;11.63;;;5.10;;
10387;SDS011;5240;51.128;4.566;2023-05-23T08:51:43;13.93;;;5.95;;
10387;SDS011;5240;51.128;4.566;2023-05-23T08:54:12;17.35;;;6.10;;
10387;SDS011;5240;51.128;4.566;2023-05-23T08:56:40;10.60;;;5.72;;
10387;SDS011;5240;51.128;4.566;2023-05-23T08:59:10;12.80;;;5.10;;
10387;SDS011;5240;51.128;4.566;2023-05-23T09:01:37;12.32;;;4.95;;
10387;SDS011;5240;51.128;4.566;2023-05-23T09:04:14;8.80;;;4.40;;
10387;SDS011;5240;51.128;4.566;2023-05-23T09:06:41;10.90;;;4.55;;
10387;SDS011;5240;51.128;4.566;2023-05-23T09:09:09;7.63;;;4.32;;
10387;SDS011;5240;51.128;4.566;2023-05-23T09:11:37;8.45;;;4.60;;
10387;SDS011;5240;51.128;4.566;2023-05-23T09:14:07;8.02;;;4.53;;
10387;SDS011;5240;51.128;4.566;2023-05-23T09:16:34;8.90;;;3.90;;
10387;SDS011;5240;51.128;4.566;2023-05-23T09:19:08;11.65;;;4.55;;
10387;SDS011;5240;51.128;4.566;2023-05-23T09:21:36;8.25;;;4.40;;
10387;SDS011;5240;51.128;4.566;2023-05-23T09:24:09;9.82;;;4.45;;
10387;SDS011;5240;51.128;4.566;2023-05-23T09:26:37;11.82;;;4.70;;
10387;SDS011;5240;51.128;4.566;2023-05-23T09:29:05;8.10;;;4.30;;
10387;SDS011;5240;51.128;4.566;2023-05-23T09:31:33;8.40;;;4.45;;
10387;SDS011;5240;51.128;4.566;2023-05-23T09:34:01;7.70;;;3.95;;
10387;SDS011;5240;51.128;4.566;2023-05-23T09:36:44;9.95;;;4.32;;
10387;SDS011;5240;51.128;4.566;2023-05-23T09:39:12;6.38;;;3.75;;
10387;SDS011;5240;51.128;4.566;2023-05-23T09:41:40;6.57;;;3.92;;
10387;SDS011;5240;51.128;4.566;2023-05-23T09:44:07;8.05;;;3.85;;
10387;SDS011;5240;51.128;4.566;2023-05-23T09:46:36;9.05;;;4.40;;
10387;SDS011;5240;51.128;4.566;2023-05-23T09:51:26;8.40;;;4.20;;
10387;SDS011;5240;51.128;4.566;2023-05-23T09:53:55;9.32;;;4.00;;
10387;SDS011;5240;51.128;4.566;2023-05-23T09:56:37;9.68;;;4.15;;
10387;SDS011;5240;51.128;4.566;2023-05-23T09:59:05;7.57;;;4.10;;
10387;SDS011;5240;51.128;4.566;2023-05-23T10:01:35;8.25;;;3.83;;
10387;SDS011;5240;51.128;4.566;2023-05-23T10:04:02;5.90;;;3.55;;
10387;SDS011;5240;51.128;4.566;2023-05-23T10:09:31;7.60;;;3.58;;
10387;SDS011;5240;51.128;4.566;2023-05-23T10:12:34;6.97;;;3.63;;
10387;SDS011;5240;51.128;4.566;2023-05-23T10:15:03;6.85;;;3.22;;
10387;SDS011;5240;51.128;4.566;2023-05-23T10:17:32;7.55;;;3.53;;
10387;SDS011;5240;51.128;4.566;2023-05-23T10:20:02;6.97;;;3.50;;
10387;SDS011;5240;51.128;4.566;2023-05-23T10:22:32;5.95;;;3.63;;
10387;SDS011;5240;51.128;4.566;2023-05-23T10:25:01;9.35;;;3.63;;
10387;SDS011;5240;51.128;4.566;2023-05-23T10:27:29;11.77;;;4.22;;
10387;SDS011;5240;51.128;4.566;2023-05-23T10:29:57;8.32;;;3.42;;
10387;SDS011;5240;51.128;4.566;2023-05-23T10:32:25;10.52;;;4.03;;
10387;SDS011;5240;51.128;4.566;2023-05-23T10:34:54;5.97;;;3.58;;
10387;SDS011;5240;51.128;4.566;2023-05-23T10:37:24;7.53;;;3.60;;
10387;SDS011;5240;51.128;4.566;2023-05-23T10:39:56;7.50;;;3.80;;
10387;SDS011;5240;51.128;4.566;2023-05-23T10:42:30;8.82;;;3.30;;
10387;SDS011;5240;51.128;4.566;2023-05-23T10:45:15;7.82;;;3.53;;
10387;SDS011;5240;51.128;4.566;2023-05-23T10:47:42;10.13;;;3.40;;
10387;SDS011;5240;51.128;4.566;2023-05-23T10:50:11;7.85;;;3.47;;
10387;SDS011;5240;51.128;4.566;2023-05-23T10:52:39;6.18;;;3.17;;
10387;SDS011;5240;51.128;4.566;2023-05-23T10:55:11;9.98;;;3.58;;
10387;SDS011;5240;51.128;4.566;2023-05-23T10:57:40;9.52;;;3.58;;
10387;SDS011;5240;51.128;4.566;2023-05-23T11:00:11;10.90;;;3.63;;
10387;SDS011;5240;51.128;4.566;2023-05-23T11:02:45;12.93;;;3.80;;
10387;SDS011;5240;51.128;4.566;2023-05-23T11:05:20;14.88;;;3.90;;
10387;SDS011;5240;51.128;4.566;2023-05-23T11:10:29;14.27;;;4.55;;
10387;SDS011;5240;51.128;4.566;2023-05-23T11:13:05;12.63;;;3.58;;
10387;SDS011;5240;51.128;4.566;2023-05-23T11:15:40;13.00;;;3.95;;
10387;SDS011;5240;51.128;4.566;2023-05-23T11:18:10;8.80;;;3.47;;
10387;SDS011;5240;51.128;4.566;2023-05-23T11:20:45;8.75;;;4.03;;
10387;SDS011;5240;51.128;4.566;2023-05-23T11:23:13;10.02;;;3.53;;
10387;SDS011;5240;51.128;4.566;2023-05-23T11:25:41;9.13;;;3.95;;
10387;SDS011;5240;51.128;4.566;2023-05-23T11:28:11;12.57;;;3.95;;
10387;SDS011;5240;51.128;4.566;2023-05-23T11:30:39;12.73;;;3.92;;
10387;SDS011;5240;51.128;4.566;2023-05-23T11:33:07;10.13;;;3.83;;
10387;SDS011;5240;51.128;4.566;2023-05-23T11:35:36;12.13;;;4.00;;
10387;SDS011;5240;51.128;4.566;2023-05-23T11:38:03;13.05;;;3.83;;
10387;SDS011;5240;51.128;4.566;2023-05-23T11:40:31;8.75;;;3.97;;
10387;SDS011;5240;51.128;4.566;2023-05-23T11:42:59;11.98;;;4.18;;
10387;SDS011;5240;51.128;4.566;2023-05-23T11:45:28;12.15;;;3.90;;
10387;SDS011;5240;51.128;4.566;2023-05-23T11:47:57;12.95;;;4.35;;
10387;SDS011;5240;51.128;4.566;2023-05-23T11:50:24;9.50;;;3.75;;
10387;SDS011;5240;51.128;4.566;2023-05-23T11:52:53;11.85;;;4.28;;
10387;SDS011;5240;51.128;4.566;2023-05-23T11:55:21;8.77;;;4.03;;
10387;SDS011;5240;51.128;4.566;2023-05-23T11:57:48;11.98;;;4.00;;
10387;SDS011;5240;51.128;4.566;2023-05-23T12:00:17;11.48;;;4.38;;
10387;SDS011;5240;51.128;4.566;2023-05-23T12:02:46;11.85;;;3.95;;
10387;SDS011;5240;51.128;4.566;2023-05-23T12:05:14;10.32;;;4.32;;
10387;SDS011;5240;51.128;4.566;2023-05-23T12:07:41;12.70;;;4.32;;
10387;SDS011;5240;51.128;4.566;2023-05-23T12:10:09;10.27;;;4.00;;
10387;SDS011;5240;51.128;4.566;2023-05-23T12:12:37;8.02;;;3.70;;
10387;SDS011;5240;51.128;4.566;2023-05-23T12:15:05;9.95;;;4.00;;
10387;SDS011;5240;51.128;4.566;2023-05-23T12:17:33;12.52;;;4.50;;
10387;SDS011;5240;51.128;4.566;2023-05-23T12:20:02;9.35;;;3.72;;
10387;SDS011;5240;51.128;4.566;2023-05-23T12:22:29;9.63;;;3.72;;
10387;SDS011;5240;51.128;4.566;2023-05-23T12:24:57;9.27;;;4.10;;
10387;SDS011;5240;51.128;4.566;2023-05-23T12:27:27;11.93;;;4.07;;
10387;SDS011;5240;51.128;4.566;2023-05-23T12:30:05;14.50;;;4.57;;
10387;SDS011;5240;51.128;4.566;2023-05-23T12:32:33;12.27;;;4.57;;
10387;SDS011;5240;51.128;4.566;2023-05-23T12:35:02;11.70;;;3.78;;
10387;SDS011;5240;51.128;4.566;2023-05-23T12:37:30;27.73;;;4.90;;
10387;SDS011;5240;51.128;4.566;2023-05-23T12:39:57;16.23;;;4.70;;
10387;SDS011;5240;51.128;4.566;2023-05-23T12:42:42;12.23;;;4.00;;
10387;SDS011;5240;51.128;4.566;2023-05-23T12:45:12;10.90;;;4.30;;
10387;SDS011;5240;51.128;4.566;2023-05-23T12:47:39;13.60;;;4.50;;
10387;SDS011;5240;51.128;4.566;2023-05-23T12:50:08;12.32;;;4.55;;
10387;SDS011;5240;51.128;4.566;2023-05-23T12:52:37;12.18;;;4.68;;
10387;SDS011;5240;51.128;4.566;2023-05-23T12:55:05;14.07;;;4.45;;
10387;SDS011;5240;51.128;4.566;2023-05-23T12:57:33;12.63;;;4.32;;
10387;SDS011;5240;51.128;4.566;2023-05-23T13:00:01;15.43;;;4.60;;
10387;SDS011;5240;51.128;4.566;2023-05-23T13:02:28;12.20;;;4.50;;
10387;SDS011;5240;51.128;4.566;2023-05-23T13:04:56;12.38;;;4.03;;
10387;SDS011;5240;51.128;4.566;2023-05-23T13:07:24;13.07;;;4.00;;
10387;SDS011;5240;51.128;4.566;2023-05-23T13:09:52;14.30;;;4.30;;
10387;SDS011;5240;51.128;4.566;2023-05-23T13:12:19;15.30;;;5.05;;
10387;SDS011;5240;51.128;4.566;2023-05-23T13:14:47;13.57;;;4.30;;
10387;SDS011;5240;51.128;4.566;2023-05-23T13:17:15;12.48;;;4.00;;
10387;SDS011;5240;51.128;4.566;2023-05-23T13:19:42;9.40;;;3.55;;
10387;SDS011;5240;51.128;4.566;2023-05-23T13:22:09;11.93;;;4.03;;
10387;SDS011;5240;51.128;4.566;2023-05-23T13:24:38;9.23;;;4.22;;
10387;SDS011;5240;51.128;4.566;2023-05-23T13:27:07;13.35;;;4.03;;
10387;SDS011;5240;51.128;4.566;2023-05-23T13:29:35;9.63;;;4.00;;
10387;SDS011;5240;51.128;4.566;2023-05-23T13:32:02;9.38;;;4.53;;
10387;SDS011;5240;51.128;4.566;2023-05-23T13:34:29;15.38;;;4.35;;
10387;SDS011;5240;51.128;4.566;2023-05-23T13:36:59;15.43;;;4.63;;
10387;SDS011;5240;51.128;4.566;2023-05-23T13:39:26;12.25;;;4.15;;
10387;SDS011;5240;51.128;4.566;2023-05-23T13:41:55;12.07;;;4.43;;
10387;SDS011;5240;51.128;4.566;2023-05-23T13:44:22;9.70;;;3.80;;
10387;SDS011;5240;51.128;4.566;2023-05-23T13:57:39;12.57;;;3.80;;
10387;SDS011;5240;51.128;4.566;2023-05-23T14:00:07;12.43;;;4.20;;
10387;SDS011;5240;51.128;4.566;2023-05-23T14:02:35;8.52;;;3.67;;
10387;SDS011;5240;51.128;4.566;2023-05-23T14:05:03;13.90;;;3.72;;
10387;SDS011;5240;51.128;4.566;2023-05-23T14:07:31;15.60;;;4.60;;
10387;SDS011;5240;51.128;4.566;2023-05-23T14:09:58;11.02;;;3.65;;
10387;SDS011;5240;51.128;4.566;2023-05-23T14:12:30;12.88;;;3.53;;
10387;SDS011;5240;51.128;4.566;2023-05-23T14:15:00;13.85;;;4.57;;
10387;SDS011;5240;51.128;4.566;2023-05-23T14:17:27;11.57;;;3.60;;
10387;SDS011;5240;51.128;4.566;2023-05-23T14:19:54;9.77;;;3.20;;
10387;SDS011;5240;51.128;4.566;2023-05-23T14:22:22;10.45;;;3.63;;
10387;SDS011;5240;51.128;4.566;2023-05-23T14:24:50;10.45;;;3.47;;
10387;SDS011;5240;51.128;4.566;2023-05-23T14:27:17;11.15;;;4.05;;
10387;SDS011;5240;51.128;4.566;2023-05-23T14:29:45;10.20;;;3.40;;
10387;SDS011;5240;51.128;4.566;2023-05-23T14:32:16;12.00;;;3.60;;
10387;SDS011;5240;51.128;4.566;2023-05-23T14:34:44;9.43;;;4.00;;
10387;SDS011;5240;51.128;4.566;2023-05-23T14:37:11;11.07;;;3.63;;
10387;SDS011;5240;51.128;4.566;2023-05-23T14:39:38;13.45;;;4.20;;
10387;SDS011;5240;51.128;4.566;2023-05-23T14:42:06;12.65;;;4.32;;
10387;SDS011;5240;51.128;4.566;2023-05-23T14:44:33;9.63;;;3.53;;
10387;SDS011;5240;51.128;4.566;2023-05-23T14:47:00;9.32;;;3.13;;
10387;SDS011;5240;51.128;4.566;2023-05-23T14:49:29;10.23;;;3.50;;
10387;SDS011;5240;51.128;4.566;2023-05-23T14:51:56;14.93;;;4.05;;
10387;SDS011;5240;51.128;4.566;2023-05-23T14:54:24;9.50;;;3.40;;
10387;SDS011;5240;51.128;4.566;2023-05-23T14:56:51;9.80;;;3.42;;
10387;SDS011;5240;51.128;4.566;2023-05-23T14:59:19;11.30;;;3.95;;
10387;SDS011;5240;51.128;4.566;2023-05-23T15:01:47;23.10;;;15.68;;
10387;SDS011;5240;51.128;4.566;2023-05-23T15:04:16;10.88;;;3.72;;
10387;SDS011;5240;51.128;4.566;2023-05-23T15:06:45;11.13;;;4.07;;
10387;SDS011;5240;51.128;4.566;2023-05-23T15:09:12;10.80;;;4.20;;
10387;SDS011;5240;51.128;4.566;2023-05-23T15:11:40;12.52;;;3.70;;
10387;SDS011;5240;51.128;4.566;2023-05-23T15:14:09;9.35;;;3.83;;
10387;SDS011;5240;51.128;4.566;2023-05-23T15:16:39;10.57;;;3.60;;
10387;SDS011;5240;51.128;4.566;2023-05-23T15:19:08;10.75;;;3.22;;
10387;SDS011;5240;51.128;4.566;2023-05-23T15:21:37;9.85;;;4.00;;
10387;SDS011;5240;51.128;4.566;2023-05-23T15:24:08;9.43;;;3.63;;
10387;SDS011;5240;51.128;4.566;2023-05-23T15:26:36;8.82;;;3.72;;
10387;SDS011;5240;51.128;4.566;2023-05-23T15:29:05;9.60;;;4.28;;